Time;durP1;ratioP1;P1;durP2;ratioP2;P2;SDS_P1;SDS_P2;PMS_P1;PMS_P2;Temp;Humidity;BMP_temperature;BMP_pressure;BME280_temperature;BME280_humidity;BME280_pressure;Samples;Min_cycle;Max_cycle;Signal;HPM_P1;HPM_P2
2023/12/05 00:00:54;;;;;;;1999.90;999.90;;;0.80;99.90;;;;;;5093162;28;20054;-79
2023/12/05 00:03:21;;;;;;;1999.90;999.90;;;0.80;99.90;;;;;;5074007;28;20127;-80
2023/12/05 00:05:46;;;;;;;1999.90;999.90;;;0.90;99.90;;;;;;5075305;28;20117;-80
2023/12/05 00:08:13;;;;;;;1999.90;999.90;;;0.90;99.90;;;;;;5092317;28;20035;-80
2023/12/05 00:10:39;;;;;;;1999.90;999.90;;;0.80;99.90;;;;;;5083895;28;20043;-80
2023/12/05 00:13:07;;;;;;;1999.90;999.90;;;0.90;99.90;;;;;;5090993;28;20058;-79
2023/12/05 00:15:33;;;;;;;1999.90;999.90;;;0.80;99.90;;;;;;5102366;28;20051;-80
2023/12/05 00:17:58;;;;;;;1999.90;999.90;;;0.90;99.90;;;;;;5086029;28;20392;-80
2023/12/05 00:20:24;;;;;;;1999.90;999.90;;;0.90;99.90;;;;;;5074262;28;20043;-80
2023/12/05 00:22:51;;;;;;;1999.90;999.90;;;0.90;99.90;;;;;;5088715;28;20036;-80
2023/12/05 00:25:17;;;;;;;1999.90;999.90;;;0.90;99.90;;;;;;5067717;28;20071;-80
2023/12/05 00:27:42;;;;;;;1999.90;999.90;;;0.90;99.90;;;;;;5109331;28;20149;-80
2023/12/05 00:30:08;;;;;;;1999.90;999.90;;;0.90;99.90;;;;;;5092240;28;20314;-80
2023/12/05 00:32:34;;;;;;;1999.90;999.90;;;0.90;99.90;;;;;;5089752;28;20100;-79
2023/12/05 00:34:59;;;;;;;1999.90;999.90;;;0.90;99.90;;;;;;5081845;28;20040;-80
2023/12/05 00:37:25;;;;;;;1999.90;999.90;;;0.90;99.90;;;;;;5087485;28;20051;-79
2023/12/05 00:39:51;;;;;;;1999.90;999.90;;;0.90;99.90;;;;;;5089166;28;20062;-80
2023/12/05 00:42:16;;;;;;;1999.90;999.90;;;0.80;99.90;;;;;;5081165;28;20035;-80
2023/12/05 00:44:42;;;;;;;1999.90;999.90;;;0.80;99.90;;;;;;5070871;27;20480;-80
2023/12/05 00:47:07;;;;;;;1999.90;999.90;;;0.90;99.90;;;;;;5113108;27;20070;-81
2023/12/05 00:49:34;;;;;;;1999.90;999.90;;;0.90;99.90;;;;;;5089485;28;20043;-81
2023/12/05 00:52:00;;;;;;;1999.90;999.90;;;0.90;99.90;;;;;;5109857;28;20051;-80
2023/12/05 00:54:26;;;;;;;1999.90;999.90;;;0.90;99.90;;;;;;5082076;28;20040;-80
2023/12/05 00:56:51;;;;;;;1999.90;999.90;;;0.90;99.90;;;;;;5092159;28;20114;-80
2023/12/05 00:59:17;;;;;;;1999.90;999.90;;;0.90;99.90;;;;;;5072743;28;20043;-80
2023/12/05 01:01:43;;;;;;;1999.90;999.90;;;0.90;99.90;;;;;;5073506;28;20047;-80
2023/12/05 01:04:08;;;;;;;1999.90;999.90;;;0.90;99.90;;;;;;5071321;28;20089;-79
2023/12/05 01:06:34;;;;;;;1999.90;999.90;;;0.90;99.90;;;;;;5087676;28;20035;-79
2023/12/05 01:08:59;;;;;;;1999.90;999.90;;;0.90;99.90;;;;;;5089484;28;20483;-80
2023/12/05 01:11:25;;;;;;;1999.90;999.90;;;0.90;99.90;;;;;;5073439;28;20040;-79
2023/12/05 01:13:51;;;;;;;1999.90;999.90;;;0.90;99.90;;;;;;5073533;28;20046;-79
2023/12/05 01:16:16;;;;;;;1999.90;999.90;;;0.80;99.90;;;;;;5085087;28;20044;-79
2023/12/05 01:18:42;;;;;;;1999.90;999.90;;;0.90;99.90;;;;;;5094936;28;20131;-78
2023/12/05 01:21:08;;;;;;;1999.90;999.90;;;0.90;99.90;;;;;;5081095;28;20051;-79
2023/12/05 01:23:34;;;;;;;1999.90;999.90;;;0.80;99.90;;;;;;5093542;28;20031;-80
2023/12/05 01:25:59;;;;;;;1999.90;999.90;;;0.80;99.90;;;;;;5090619;28;20565;-80
2023/12/05 01:28:25;;;;;;;1999.90;999.90;;;0.80;99.90;;;;;;5101105;28;20039;-80
2023/12/05 01:30:50;;;;;;;1999.90;999.90;;;0.80;99.90;;;;;;5083151;28;20552;-80
2023/12/05 01:33:16;;;;;;;1999.90;999.90;;;0.80;99.90;;;;;;5068690;28;20040;-80
2023/12/05 01:35:42;;;;;;;1999.90;999.90;;;0.80;99.90;;;;;;5084454;28;20040;-80
2023/12/05 01:38:08;;;;;;;1999.90;999.90;;;0.80;99.90;;;;;;5089982;28;20036;-80
2023/12/05 01:40:33;;;;;;;1999.90;999.90;;;0.80;99.90;;;;;;5108936;28;20567;-80
2023/12/05 01:42:59;;;;;;;1999.90;999.90;;;0.80;99.90;;;;;;5104525;28;20058;-80
2023/12/05 01:45:25;;;;;;;1999.90;999.90;;;0.80;99.90;;;;;;5070219;28;20075;-80
2023/12/05 01:47:50;;;;;;;1999.90;999.90;;;0.80;99.90;;;;;;5073258;28;20179;-81
2023/12/05 01:50:22;;;;;;;1999.90;999.90;;;0.80;99.90;;;;;;5090999;28;20039;-80
2023/12/05 01:52:58;;;;;;;1999.90;999.90;;;0.80;99.90;;;;;;5073696;28;20051;-80
2023/12/05 01:55:24;;;;;;;1999.90;999.90;;;0.80;99.90;;;;;;5071239;28;20424;-80
2023/12/05 01:57:51;;;;;;;1999.90;999.90;;;0.80;99.90;;;;;;5095334;28;20040;-80
2023/12/05 02:00:18;;;;;;;1999.90;999.90;;;0.80;99.90;;;;;;5092117;28;20035;-81
2023/12/05 02:02:43;;;;;;;1999.90;999.90;;;0.80;99.90;;;;;;5110883;28;20071;-80
2023/12/05 02:05:10;;;;;;;1999.90;999.90;;;0.80;99.90;;;;;;5072835;28;20047;-80
2023/12/05 02:07:36;;;;;;;1999.90;999.90;;;0.70;99.90;;;;;;5090851;28;20073;-80
2023/12/05 02:10:02;;;;;;;1999.90;999.90;;;0.70;99.90;;;;;;5108233;28;20043;-80
2023/12/05 02:12:28;;;;;;;1999.90;999.90;;;0.70;99.90;;;;;;5073901;28;20377;-80
2023/12/05 02:14:54;;;;;;;1999.90;999.90;;;0.70;99.90;;;;;;5073750;28;20032;-80
2023/12/05 02:17:26;;;;;;;1999.90;999.90;;;0.70;99.90;;;;;;5088896;28;20046;-80
2023/12/05 02:20:21;;;;;;;1999.90;999.90;;;0.70;99.90;;;;;;5084215;28;20048;-80
2023/12/05 02:23:15;;;;;;;1999.90;999.90;;;0.70;99.90;;;;;;5063488;28;20063;-80
2023/12/05 02:25:49;;;;;;;1999.90;999.90;;;0.70;99.90;;;;;;5107548;28;20104;-80
2023/12/05 02:28:16;;;;;;;1999.90;999.90;;;0.70;99.90;;;;;;5087178;28;20082;-80
2023/12/05 02:30:42;;;;;;;1999.90;999.90;;;0.70;99.90;;;;;;5087805;28;20361;-80
2023/12/05 02:33:07;;;;;;;1999.90;999.90;;;0.70;99.90;;;;;;5096670;28;20035;-80
2023/12/05 02:35:33;;;;;;;1999.90;999.90;;;0.70;99.90;;;;;;5104100;28;20119;-80
2023/12/05 02:38:09;;;;;;;1999.90;999.90;;;0.60;99.90;;;;;;5081039;28;20042;-81
2023/12/05 02:40:53;;;;;;;1999.90;999.90;;;0.60;99.90;;;;;;5104947;28;20050;-80
2023/12/05 02:43:27;;;;;;;1999.90;999.90;;;0.60;99.90;;;;;;5098698;28;20047;-80
2023/12/05 02:45:54;;;;;;;1999.90;999.90;;;0.60;99.90;;;;;;5102380;28;20061;-80
2023/12/05 02:48:21;;;;;;;1999.90;999.90;;;0.50;99.90;;;;;;5070875;28;20075;-80
2023/12/05 02:50:46;;;;;;;1999.90;999.90;;;0.60;99.90;;;;;;5087498;28;20039;-79
2023/12/05 02:53:12;;;;;;;1999.90;999.90;;;0.60;99.90;;;;;;5101629;28;20100;-80
2023/12/05 02:55:39;;;;;;;1999.90;999.90;;;0.50;99.90;;;;;;5105489;28;20039;-80
2023/12/05 02:58:04;;;;;;;1999.90;999.90;;;0.60;99.90;;;;;;5090171;28;20084;-80
2023/12/05 03:00:30;;;;;;;1999.90;999.90;;;0.50;99.90;;;;;;5087273;28;20031;-80
2023/12/05 03:02:55;;;;;;;1999.90;999.90;;;0.50;99.90;;;;;;5067389;28;20376;-80
2023/12/05 03:05:21;;;;;;;1999.90;999.90;;;0.50;99.90;;;;;;5092369;28;20046;-80
2023/12/05 03:07:46;;;;;;;1999.90;999.90;;;0.50;99.90;;;;;;5097595;27;20039;-80
2023/12/05 03:10:12;;;;;;;1999.90;999.90;;;0.50;99.90;;;;;;5087214;28;20028;-80
2023/12/05 03:12:38;;;;;;;1999.90;999.90;;;0.50;99.90;;;;;;5105852;28;20509;-80
2023/12/05 03:15:04;;;;;;;1999.90;999.90;;;0.50;99.90;;;;;;5091344;28;20044;-80
2023/12/05 03:17:29;;;;;;;1999.90;999.90;;;0.50;99.90;;;;;;5107651;27;20071;-80
2023/12/05 03:19:55;;;;;;;1999.90;999.90;;;0.40;99.90;;;;;;5091759;28;20075;-80
2023/12/05 03:22:21;;;;;;;1999.90;999.90;;;0.50;99.90;;;;;;5089155;28;20407;-81
2023/12/05 03:24:46;;;;;;;1999.90;999.90;;;0.50;99.90;;;;;;5074091;28;20035;-80
2023/12/05 03:27:12;;;;;;;1999.90;999.90;;;0.40;99.90;;;;;;5079213;27;20643;-80
2023/12/05 03:29:38;;;;;;;1999.90;999.90;;;0.40;99.90;;;;;;5087178;28;20484;-80
2023/12/05 03:32:04;;;;;;;1999.90;999.90;;;0.40;99.90;;;;;;5087844;28;20088;-80
2023/12/05 03:34:29;;;;;;;1999.90;999.90;;;0.40;99.90;;;;;;5091247;28;20039;-80
2023/12/05 03:36:55;;;;;;;1999.90;999.90;;;0.40;99.90;;;;;;5093168;27;20048;-81
2023/12/05 03:39:21;;;;;;;1999.90;999.90;;;0.30;99.90;;;;;;5082817;28;20119;-80
2023/12/05 03:41:47;;;;;;;1999.90;999.90;;;0.30;99.90;;;;;;5074375;28;20058;-80
2023/12/05 03:44:13;;;;;;;1999.90;999.90;;;0.30;99.90;;;;;;5090262;28;20082;-80
2023/12/05 03:46:38;;;;;;;1999.90;999.90;;;0.30;99.90;;;;;;5090269;28;20471;-80
2023/12/05 03:49:04;;;;;;;1999.90;999.90;;;0.30;99.90;;;;;;5075409;28;20042;-80
2023/12/05 03:51:30;;;;;;;1999.90;999.90;;;0.30;99.90;;;;;;5069879;28;20376;-80
2023/12/05 03:53:56;;;;;;;1999.90;999.90;;;0.30;99.90;;;;;;5074812;28;20601;-80
2023/12/05 03:56:22;;;;;;;1999.90;999.90;;;0.20;99.90;;;;;;5091215;27;20487;-80
2023/12/05 03:58:47;;;;;;;1999.90;999.90;;;0.30;99.90;;;;;;5104771;27;20478;-81
2023/12/05 04:01:13;;;;;;;1999.90;999.90;;;0.30;99.90;;;;;;5063937;28;20047;-80
2023/12/05 04:03:39;;;;;;;1999.90;999.90;;;0.30;99.90;;;;;;5066827;28;20043;-80
2023/12/05 04:06:05;;;;;;;1999.90;999.90;;;0.20;99.90;;;;;;5085420;28;20040;-80
2023/12/05 04:08:31;;;;;;;1999.90;999.90;;;0.20;99.90;;;;;;5066528;28;20031;-80
2023/12/05 04:10:56;;;;;;;1999.90;999.90;;;0.20;99.90;;;;;;5069922;28;20046;-81
2023/12/05 04:13:22;;;;;;;1999.90;999.90;;;0.20;99.90;;;;;;5070065;28;20631;-80
2023/12/05 04:15:47;;;;;;;1999.90;999.90;;;0.20;99.90;;;;;;5068577;28;20506;-81
2023/12/05 04:18:13;;;;;;;1999.90;999.90;;;0.20;99.90;;;;;;5085645;28;20090;-80
2023/12/05 04:20:38;;;;;;;1999.90;999.90;;;0.20;99.90;;;;;;5106464;27;20053;-80
2023/12/05 04:23:04;;;;;;;1999.90;999.90;;;0.20;99.90;;;;;;5099393;27;20118;-81
2023/12/05 04:25:30;;;;;;;1999.90;999.90;;;0.20;99.90;;;;;;5082362;28;20145;-81
2023/12/05 04:27:55;;;;;;;1999.90;999.90;;;0.20;99.90;;;;;;5090998;28;20403;-82
2023/12/05 04:30:21;;;;;;;1999.90;999.90;;;0.20;99.90;;;;;;5068984;28;20408;-80
2023/12/05 04:32:46;;;;;;;1999.90;999.90;;;0.20;99.90;;;;;;5071546;28;20047;-81
2023/12/05 04:35:12;;;;;;;1999.90;999.90;;;0.20;99.90;;;;;;5110208;28;20537;-80
2023/12/05 04:37:38;;;;;;;1999.90;999.90;;;0.30;99.90;;;;;;5086588;28;20039;-80
2023/12/05 04:40:04;;;;;;;1999.90;999.90;;;0.20;99.90;;;;;;5073080;28;20055;-81
2023/12/05 04:42:30;;;;;;;1999.90;999.90;;;0.20;99.90;;;;;;5089793;28;20128;-81
2023/12/05 04:44:55;;;;;;;1999.90;999.90;;;0.20;99.90;;;;;;5089032;28;20055;-82
2023/12/05 04:47:21;;;;;;;1999.90;999.90;;;0.20;99.90;;;;;;5069847;28;20510;-80
2023/12/05 04:49:47;;;;;;;1999.90;999.90;;;0.20;99.90;;;;;;5072023;28;20118;-82
2023/12/05 04:52:12;;;;;;;1999.90;999.90;;;0.20;99.90;;;;;;5104921;27;20488;-81
2023/12/05 04:54:38;;;;;;;1999.90;999.90;;;0.20;99.90;;;;;;5088700;28;20043;-82
2023/12/05 04:57:04;;;;;;;1999.90;999.90;;;0.20;99.90;;;;;;5087224;28;20138;-81
2023/12/05 04:59:29;;;;;;;1999.90;999.90;;;0.20;99.90;;;;;;5074096;28;20049;-82
2023/12/05 05:01:55;;;;;;;1999.90;999.90;;;0.20;99.90;;;;;;5085825;27;20146;-81
2023/12/05 05:04:21;;;;;;;1999.90;999.90;;;0.30;99.90;;;;;;5082676;28;20036;-82
2023/12/05 05:06:46;;;;;;;1999.90;999.90;;;0.20;99.90;;;;;;5068101;28;20046;-82
2023/12/05 05:09:13;;;;;;;1999.90;999.90;;;0.20;99.90;;;;;;5102333;28;20039;-82
2023/12/05 05:11:38;;;;;;;1999.90;999.90;;;0.20;99.90;;;;;;5108032;28;20035;-80
2023/12/05 05:14:04;;;;;;;1999.90;999.90;;;0.20;99.90;;;;;;5092008;28;20044;-81
2023/12/05 05:16:30;;;;;;;1999.90;999.90;;;0.20;99.90;;;;;;5081895;28;20051;-83
2023/12/05 05:18:55;;;;;;;1999.90;999.90;;;0.20;99.90;;;;;;5069569;28;20040;-82
2023/12/05 05:21:21;;;;;;;1999.90;999.90;;;0.20;99.90;;;;;;5109602;28;20047;-83
2023/12/05 05:23:46;;;;;;;1999.90;999.90;;;0.20;99.90;;;;;;5069794;28;20404;-82
2023/12/05 05:26:14;;;;;;;1999.90;999.90;;;0.30;99.90;;;;;;5067679;28;20167;-82
2023/12/05 05:28:39;;;;;;;1999.90;999.90;;;0.20;99.90;;;;;;5099545;28;20044;-83
2023/12/05 05:31:05;;;;;;;1999.90;999.90;;;0.20;99.90;;;;;;5080591;28;20080;-82
2023/12/05 05:33:31;;;;;;;1999.90;999.90;;;0.20;99.90;;;;;;5108463;28;20127;-81
2023/12/05 05:35:56;;;;;;;1999.90;999.90;;;0.30;99.90;;;;;;5108908;28;20189;-82
2023/12/05 05:38:22;;;;;;;1999.90;999.90;;;0.30;99.90;;;;;;5088720;28;20043;-82
2023/12/05 05:40:48;;;;;;;1999.90;999.90;;;0.20;99.90;;;;;;5108136;28;20518;-81
2023/12/05 05:43:13;;;;;;;1999.90;999.90;;;0.20;99.90;;;;;;5086660;28;20043;-82
2023/12/05 05:45:39;;;;;;;1999.90;999.90;;;0.30;99.90;;;;;;5088387;28;20059;-82
2023/12/05 05:48:05;;;;;;;1999.90;999.90;;;0.20;99.90;;;;;;5086978;28;20036;-82
2023/12/05 05:50:31;;;;;;;1999.90;999.90;;;0.20;99.90;;;;;;5090154;28;20507;-82
2023/12/05 05:52:56;;;;;;;1999.90;999.90;;;0.30;99.90;;;;;;5072064;28;20043;-82
2023/12/05 05:55:24;;;;;;;1999.90;999.90;;;0.30;99.90;;;;;;5080442;28;20048;-82
2023/12/05 05:57:50;;;;;;;1999.90;999.90;;;0.30;99.90;;;;;;5086386;28;20125;-82
2023/12/05 06:00:17;;;;;;;1999.90;999.90;;;0.30;99.90;;;;;;5067307;28;20043;-82
2023/12/05 06:02:43;;;;;;;1999.90;999.90;;;0.30;99.90;;;;;;5074733;28;20506;-83
2023/12/05 06:05:08;;;;;;;1999.90;999.90;;;0.30;99.90;;;;;;5102562;28;20032;-82
2023/12/05 06:07:34;;;;;;;1999.90;999.90;;;0.30;99.90;;;;;;5083330;28;20058;-81
2023/12/05 06:10:00;;;;;;;1999.90;999.90;;;0.30;99.90;;;;;;5107356;28;20507;-82
2023/12/05 06:12:26;;;;;;;1999.90;999.90;;;0.30;99.90;;;;;;5080859;28;20453;-82
2023/12/05 06:14:52;;;;;;;1999.90;999.90;;;0.40;99.90;;;;;;5107111;28;20034;-82
2023/12/05 06:17:17;;;;;;;1999.90;999.90;;;0.40;99.90;;;;;;5084836;28;20044;-82
2023/12/05 06:19:43;;;;;;;1999.90;999.90;;;0.40;99.90;;;;;;5064490;28;20062;-83
2023/12/05 06:22:08;;;;;;;1999.90;999.90;;;0.40;99.90;;;;;;5064526;28;20043;-82
2023/12/05 06:24:34;;;;;;;1999.90;999.90;;;0.40;99.90;;;;;;5106232;28;20159;-82
2023/12/05 06:26:59;;;;;;;1999.90;999.90;;;0.30;99.90;;;;;;5062201;28;20039;-82
2023/12/05 06:29:25;;;;;;;1999.90;999.90;;;0.30;99.90;;;;;;5084570;28;20044;-83
2023/12/05 06:31:51;;;;;;;1999.90;999.90;;;0.30;99.90;;;;;;5068954;28;20044;-82
2023/12/05 06:34:16;;;;;;;1999.90;999.90;;;0.30;99.90;;;;;;5106716;28;20058;-83
2023/12/05 06:36:42;;;;;;;1999.90;999.90;;;0.30;99.90;;;;;;5085383;28;20141;-82
2023/12/05 06:39:08;;;;;;;1999.90;999.90;;;0.30;99.90;;;;;;5065946;28;20118;-82
2023/12/05 06:41:35;;;;;;;1999.90;999.90;;;0.30;99.90;;;;;;5086889;28;20101;-82
2023/12/05 06:44:02;;;;;;;1999.90;999.90;;;0.30;99.90;;;;;;5087985;27;20040;-82
2023/12/05 06:46:28;;;;;;;1999.90;999.90;;;0.30;99.90;;;;;;5066261;28;20024;-82
2023/12/05 06:48:53;;;;;;;1999.90;999.90;;;0.30;99.90;;;;;;5071078;28;20043;-81
2023/12/05 06:51:19;;;;;;;1999.90;999.90;;;0.30;99.90;;;;;;5089758;28;20399;-80
2023/12/05 06:53:47;;;;;;;1999.90;999.90;;;0.30;99.90;;;;;;5087388;28;20047;-81
2023/12/05 06:56:15;;;;;;;1999.90;999.90;;;0.30;99.90;;;;;;5087414;28;20055;-82
2023/12/05 06:58:41;;;;;;;1999.90;999.90;;;0.30;99.90;;;;;;5096554;28;20058;-81
2023/12/05 07:01:07;;;;;;;1999.90;999.90;;;0.30;99.90;;;;;;5088112;28;20047;-81
2023/12/05 07:03:33;;;;;;;1999.90;999.90;;;0.30;99.90;;;;;;5083575;28;20709;-82
2023/12/05 07:05:59;;;;;;;1999.90;999.90;;;0.30;99.90;;;;;;5075287;28;20031;-81
2023/12/05 07:08:26;;;;;;;1999.90;999.90;;;0.20;99.90;;;;;;5064360;28;20063;-82
2023/12/05 07:10:52;;;;;;;1999.90;999.90;;;0.30;99.90;;;;;;5064561;28;20491;-82
2023/12/05 07:13:18;;;;;;;1999.90;999.90;;;0.20;99.90;;;;;;5076781;28;20043;-81
2023/12/05 07:15:43;;;;;;;1999.90;999.90;;;0.30;99.90;;;;;;5066550;27;20446;-82
2023/12/05 07:18:09;;;;;;;1999.90;999.90;;;0.30;99.90;;;;;;5094933;28;20039;-81
2023/12/05 07:20:34;;;;;;;1999.90;999.90;;;0.30;99.90;;;;;;5073562;28;20126;-81
2023/12/05 07:23:00;;;;;;;1999.90;999.90;;;0.30;99.90;;;;;;5089902;28;20499;-82
2023/12/05 07:25:26;;;;;;;1999.90;999.90;;;0.30;99.90;;;;;;5090438;28;20032;-82
2023/12/05 07:27:51;;;;;;;1999.90;999.90;;;0.30;99.90;;;;;;5110465;27;20649;-82
2023/12/05 07:30:17;;;;;;;1999.90;999.90;;;0.30;99.90;;;;;;5074223;28;20096;-82
2023/12/05 07:32:43;;;;;;;1999.90;999.90;;;0.30;99.90;;;;;;5105128;28;20510;-82
2023/12/05 07:35:08;;;;;;;1999.90;999.90;;;0.30;99.90;;;;;;5092316;28;20396;-81
2023/12/05 07:37:34;;;;;;;1999.90;999.90;;;0.30;99.90;;;;;;5110056;27;20046;-82
2023/12/05 07:40:00;;;;;;;1999.90;999.90;;;0.30;99.90;;;;;;5092949;28;20108;-82
2023/12/05 07:42:25;;;;;;;1999.90;999.90;;;0.20;99.90;;;;;;5092632;28;20039;-83
2023/12/05 07:44:51;;;;;;;1999.90;999.90;;;0.30;99.90;;;;;;5075040;28;20585;-82
2023/12/05 07:47:17;;;;;;;1999.90;999.90;;;0.30;99.90;;;;;;5092497;28;20050;-82
2023/12/05 07:49:45;;;;;;;1999.90;999.90;;;0.30;99.90;;;;;;5092902;28;20036;-82
2023/12/05 07:52:10;;;;;;;1999.90;999.90;;;0.30;99.90;;;;;;5087544;28;20048;-82
2023/12/05 07:54:36;;;;;;;1999.90;999.90;;;0.40;99.90;;;;;;5087905;28;20050;-82
2023/12/05 07:57:03;;;;;;;1999.90;999.90;;;0.30;99.90;;;;;;5097751;27;20444;-82
2023/12/05 07:59:28;;;;;;;1999.90;999.90;;;0.30;99.90;;;;;;5074933;28;20043;-82
2023/12/05 08:01:54;;;;;;;1999.90;999.90;;;0.30;99.90;;;;;;5092047;28;20449;-81
2023/12/05 08:04:19;;;;;;;1999.90;999.90;;;0.40;99.90;;;;;;5066192;28;20046;-82
2023/12/05 08:06:45;;;;;;;1999.90;999.90;;;0.40;99.90;;;;;;5090440;28;20403;-81
2023/12/05 08:09:11;;;;;;;1999.90;999.90;;;0.40;99.90;;;;;;5071178;28;20122;-84
2023/12/05 08:11:38;;;;;;;1999.90;999.90;;;0.40;99.90;;;;;;5071824;28;20051;-82
2023/12/05 08:14:03;;;;;;;1999.90;999.90;;;0.40;99.90;;;;;;5088498;28;20047;-82
2023/12/05 08:16:29;;;;;;;1999.90;999.90;;;0.50;99.90;;;;;;5071679;28;20515;-82
2023/12/05 08:18:55;;;;;;;1999.90;999.90;;;0.50;99.90;;;;;;5067575;28;20070;-82
2023/12/05 08:21:20;;;;;;;1999.90;999.90;;;0.50;99.90;;;;;;5064578;28;20043;-81
2023/12/05 08:23:46;;;;;;;1999.90;999.90;;;0.50;99.90;;;;;;5064940;28;20432;-82
2023/12/05 08:26:11;;;;;;;1999.90;999.90;;;0.50;99.90;;;;;;5083788;28;20069;-83
2023/12/05 08:28:37;;;;;;;1999.90;999.90;;;0.50;99.90;;;;;;5084323;28;20036;-83
2023/12/05 08:31:03;;;;;;;1999.90;999.90;;;0.50;99.90;;;;;;5065464;28;20043;-83
2023/12/05 08:33:29;;;;;;;1999.90;999.90;;;0.50;99.90;;;;;;5072803;28;20040;-83
2023/12/05 08:35:55;;;;;;;1999.90;999.90;;;0.60;99.90;;;;;;5104896;28;20042;-83
2023/12/05 08:38:21;;;;;;;1999.90;999.90;;;0.60;99.90;;;;;;5072098;28;20484;-82
2023/12/05 08:40:46;;;;;;;1999.90;999.90;;;0.50;99.90;;;;;;5085121;27;20059;-82
2023/12/05 08:43:12;;;;;;;1999.90;999.90;;;0.60;99.90;;;;;;5102836;28;20039;-83
2023/12/05 08:45:38;;;;;;;1999.90;999.90;;;0.60;99.90;;;;;;5097131;28;20060;-82
2023/12/05 08:48:03;;;;;;;1999.90;999.90;;;0.60;99.90;;;;;;5065646;28;20028;-83
2023/12/05 08:50:29;;;;;;;1999.90;999.90;;;0.60;99.90;;;;;;5069343;28;20035;-83
2023/12/05 08:52:55;;;;;;;1999.90;999.90;;;0.60;99.90;;;;;;5087164;28;20044;-83
2023/12/05 08:55:20;;;;;;;1999.90;999.90;;;0.60;99.90;;;;;;5088469;28;20050;-83
2023/12/05 08:57:46;;;;;;;1999.90;999.90;;;0.60;99.90;;;;;;5089323;28;20035;-82
2023/12/05 09:00:12;;;;;;;1999.90;999.90;;;0.60;99.90;;;;;;5069083;28;20173;-81
2023/12/05 09:02:37;;;;;;;1999.90;999.90;;;0.70;99.90;;;;;;5093255;28;20034;-83
2023/12/05 09:05:04;;;;;;;1999.90;999.90;;;0.60;99.90;;;;;;5085368;28;20050;-83
2023/12/05 09:07:30;;;;;;;1999.90;999.90;;;0.70;99.90;;;;;;5085652;28;20043;-83
2023/12/05 09:09:55;;;;;;;1999.90;999.90;;;0.60;99.90;;;;;;5085896;28;20036;-83
2023/12/05 09:12:22;;;;;;;1999.90;999.90;;;0.70;99.90;;;;;;5086185;28;20040;-83
2023/12/05 09:14:47;;;;;;;1999.90;999.90;;;0.60;99.90;;;;;;5080615;28;20054;-83
2023/12/05 09:17:14;;;;;;;1999.90;999.90;;;0.70;99.90;;;;;;5107550;28;20120;-83
2023/12/05 09:19:41;;;;;;;1999.90;999.90;;;0.70;99.90;;;;;;5082409;28;20044;-82
2023/12/05 09:22:06;;;;;;;1999.90;999.90;;;0.70;99.90;;;;;;5087304;28;20035;-83
2023/12/05 09:24:32;;;;;;;1999.90;999.90;;;0.70;99.90;;;;;;5062169;28;20051;-82
2023/12/05 09:26:57;;;;;;;1999.90;999.90;;;0.70;99.90;;;;;;5065705;28;20043;-83
2023/12/05 09:29:23;;;;;;;1999.90;999.90;;;0.70;99.90;;;;;;5072943;28;20030;-81
2023/12/05 09:31:49;;;;;;;1999.90;999.90;;;0.70;99.90;;;;;;5073564;28;20514;-83
2023/12/05 09:34:14;;;;;;;1999.90;999.90;;;0.70;99.90;;;;;;5084877;28;20049;-83
2023/12/05 09:36:40;;;;;;;1999.90;999.90;;;0.70;99.90;;;;;;5079341;28;20046;-83
2023/12/05 09:39:06;;;;;;;1999.90;999.90;;;0.80;99.90;;;;;;5070117;28;20040;-83
2023/12/05 09:41:41;;;;;;;1999.90;999.90;;;0.70;99.90;;;;;;5073320;28;20052;-83
2023/12/05 09:44:08;;;;;;;1999.90;999.90;;;0.80;99.90;;;;;;5068692;28;20040;-83
2023/12/05 09:46:36;;;;;;;1999.90;999.90;;;0.90;99.90;;;;;;5081604;28;20036;-81
2023/12/05 09:49:05;;;;;;;1999.90;999.90;;;0.80;99.90;;;;;;5084609;28;20092;-83
2023/12/05 09:51:33;;;;;;;1999.90;999.90;;;0.80;99.90;;;;;;5068439;28;20581;-83
2023/12/05 09:54:00;;;;;;;1999.90;999.90;;;0.90;99.90;;;;;;5074609;28;20032;-82
2023/12/05 09:56:26;;;;;;;1999.90;999.90;;;0.80;99.90;;;;;;5065281;28;20492;-83
2023/12/05 09:58:53;;;;;;;1999.90;999.90;;;0.80;99.90;;;;;;5090248;28;20089;-84
2023/12/05 10:01:21;;;;;;;1999.90;999.90;;;0.90;99.90;;;;;;5072874;28;20047;-83
2023/12/05 10:03:54;;;;;;;1999.90;999.90;;;0.80;99.90;;;;;;5071757;28;20414;-83
2023/12/05 10:06:22;;;;;;;1999.90;999.90;;;0.90;99.90;;;;;;5077014;28;20851;-83
2023/12/05 10:08:51;;;;;;;1999.90;999.90;;;0.90;99.90;;;;;;5084772;28;20250;-82
2023/12/05 10:11:20;;;;;;;1999.90;999.90;;;0.90;99.90;;;;;;5066503;28;20058;-83
2023/12/05 10:13:46;;;;;;;1999.90;999.90;;;1.00;99.90;;;;;;5075149;28;20089;-82
2023/12/05 10:16:13;;;;;;;1999.90;999.90;;;0.90;99.90;;;;;;5074412;28;20043;-82
2023/12/05 10:18:40;;;;;;;1999.90;999.90;;;0.90;99.90;;;;;;5090671;28;20115;-83
2023/12/05 10:21:05;;;;;;;1999.90;999.90;;;0.90;99.90;;;;;;5086930;28;20039;-80
2023/12/05 10:23:32;;;;;;;1999.90;999.90;;;0.90;99.90;;;;;;5112300;28;20043;-83
2023/12/05 10:25:58;;;;;;;1999.90;999.90;;;1.00;99.90;;;;;;5081449;28;20039;-83
2023/12/05 10:28:24;;;;;;;1999.90;999.90;;;0.90;99.90;;;;;;5073571;28;20395;-82
2023/12/05 10:30:49;;;;;;;1999.90;999.90;;;1.00;99.90;;;;;;5087283;28;20035;-82
2023/12/05 10:33:16;;;;;;;1999.90;999.90;;;1.00;99.90;;;;;;5077211;28;20038;-83
2023/12/05 10:35:44;;;;;;;1999.90;999.90;;;1.00;99.90;;;;;;5077882;27;20081;-83
2023/12/05 10:38:12;;;;;;;1999.90;999.90;;;1.00;99.90;;;;;;5090836;28;20044;-83
2023/12/05 10:40:57;;;;;;;1999.90;999.90;;;1.00;99.90;;;;;;5077086;28;20472;-83
2023/12/05 10:43:24;;;;;;;1999.90;999.90;;;1.00;99.90;;;;;;5071179;28;20108;-83
2023/12/05 10:45:51;;;;;;;1999.90;999.90;;;1.00;99.90;;;;;;5083092;28;20645;-83
2023/12/05 10:48:18;;;;;;;1999.90;999.90;;;1.00;99.90;;;;;;5080817;28;20127;-84
2023/12/05 10:50:46;;;;;;;1999.90;999.90;;;1.00;99.90;;;;;;5109217;28;20043;-85
2023/12/05 10:53:13;;;;;;;1999.90;999.90;;;1.00;99.90;;;;;;5091569;28;20043;-84
2023/12/05 10:55:39;;;;;;;1999.90;999.90;;;0.90;99.90;;;;;;5093412;28;20396;-84
2023/12/05 10:58:04;;;;;;;1999.90;999.90;;;0.90;99.90;;;;;;5069550;28;20024;-85
2023/12/05 11:00:31;;;;;;;1999.90;999.90;;;0.90;99.90;;;;;;5091074;28;20118;-85
2023/12/05 11:02:57;;;;;;;1999.90;999.90;;;1.00;99.90;;;;;;5072141;28;20050;-87
2023/12/05 11:05:24;;;;;;;1999.90;999.90;;;0.90;99.90;;;;;;5087559;28;20043;-85
2023/12/05 11:07:51;;;;;;;1999.90;999.90;;;0.80;99.90;;;;;;5075248;28;20052;-85
2023/12/05 11:10:16;;;;;;;1999.90;999.90;;;0.90;99.90;;;;;;5092368;28;20036;-87
2023/12/05 11:12:49;;;;;;;1999.90;999.90;;;0.90;99.90;;;;;;5073482;28;20055;-86
2023/12/05 11:15:18;;;;;;;1999.90;999.90;;;0.90;99.90;;;;;;5106436;28;20070;-87
2023/12/05 11:18:12;;;;;;;1999.90;999.90;;;0.80;99.90;;;;;;5090783;28;20039;-86
2023/12/05 11:20:52;;;;;;;1999.90;999.90;;;0.90;99.90;;;;;;5076240;28;20062;-87
2023/12/05 11:23:47;;;;;;;1999.90;999.90;;;0.90;99.90;;;;;;5084850;28;20488;-86
2023/12/05 11:26:37;;;;;;;1999.90;999.90;;;1.00;99.90;;;;;;5081686;28;20081;-86
2023/12/05 11:29:18;;;;;;;1999.90;999.90;;;1.00;99.90;;;;;;5081517;28;20032;-86
2023/12/05 11:32:02;;;;;;;1999.90;999.90;;;0.90;99.90;;;;;;5074248;28;20054;-86
2023/12/05 11:35:10;;;;;;;1999.90;999.90;;;0.90;99.90;;;;;;5106350;28;20403;-86
2023/12/05 11:37:54;;;;;;;1999.90;999.90;;;0.90;99.90;;;;;;5087482;28;20473;-86
2023/12/05 11:40:20;;;;;;;;;;;0.80;99.90;;;;;;5101703;28;20083;-86
2023/12/05 11:43:10;;;;;;;1999.90;999.90;;;0.90;99.90;;;;;;5066649;28;19924;-86
2023/12/05 11:45:37;;;;;;;1999.90;999.90;;;0.90;99.90;;;;;;5086660;28;20045;-86
2023/12/05 11:48:04;;;;;;;1999.90;999.90;;;0.90;99.90;;;;;;5090340;28;20429;-85
2023/12/05 11:50:47;;;;;;;1999.90;999.90;;;0.90;99.90;;;;;;5064099;28;20395;-84
2023/12/05 11:53:14;;;;;;;1999.90;999.90;;;0.90;99.90;;;;;;5090007;28;20039;-85
2023/12/05 11:55:42;;;;;;;1999.90;999.90;;;0.90;99.90;;;;;;5069218;28;20113;-85
2023/12/05 11:58:35;;;;;;;1999.90;999.90;;;0.90;99.90;;;;;;5076002;28;20111;-85
2023/12/05 12:01:09;;;;;;;1999.90;999.90;;;0.90;99.90;;;;;;5075962;28;20688;-86
2023/12/05 12:03:54;;;;;;;1999.90;999.90;;;0.90;99.90;;;;;;5083792;28;20035;-85
2023/12/05 12:06:22;;;;;;;1999.90;999.90;;;0.90;99.90;;;;;;5063478;28;20136;-86
2023/12/05 12:08:49;;;;;;;1999.90;999.90;;;0.90;99.90;;;;;;5062989;28;20066;-85